Time;durP1;ratioP1;P1;durP2;ratioP2;P2;SDS_P1;SDS_P2;PMS_P1;PMS_P2;Temp;Humidity;BMP_temperature;BMP_pressure;BME280_temperature;BME280_humidity;BME280_pressure;Samples;Min_cycle;Max_cycle;Signal;HPM_P1;HPM_P2
2024/02/27 00:00:27;;;;;;;30.30;3.20;;;;;;;0.71;66.17;100242.78;78909;1311;3013308;-73
2024/02/27 00:02:54;;;;;;;28.30;3.60;;;;;;;0.65;66.46;100238.86;79123;1311;3011887;-69
2024/02/27 00:05:22;;;;;;;20.60;3.60;;;;;;;0.70;66.56;100237.45;77532;1309;3025291;-70
2024/02/27 00:07:49;;;;;;;24.40;3.70;;;;;;;0.67;66.44;100242.98;78749;1311;3018587;-67
2024/02/27 00:10:16;;;;;;;20.60;3.60;;;;;;;0.62;66.51;100236.98;78751;1309;3011687;-74
2024/02/27 00:12:44;;;;;;;14.10;3.20;;;;;;;0.63;66.50;100232.85;77489;1311;3026372;-71
2024/02/27 00:15:10;;;;;;;22.10;3.60;;;;;;;0.59;66.67;100237.70;78776;1311;3013943;-70
2024/02/27 00:17:37;;;;;;;24.10;4.50;;;;;;;0.59;66.78;100243.56;78730;1311;3012964;-71
2024/02/27 00:20:07;;;;;;;22.60;3.40;;;;;;;0.54;67.24;100242.73;77542;1308;3026155;-72
2024/02/27 00:22:34;;;;;;;25.50;4.40;;;;;;;0.48;67.45;100237.61;78815;1308;3011876;-73
2024/02/27 00:25:04;;;;;;;13.60;3.00;;;;;;;0.52;67.58;100237.92;78202;1309;3011888;-72
2024/02/27 00:27:30;;;;;;;26.90;4.10;;;;;;;0.52;67.21;100245.18;78687;1309;3012899;-72
2024/02/27 00:29:57;;;;;;;19.70;3.50;;;;;;;0.51;67.48;100238.79;78683;1309;3011672;-71
2024/02/27 00:32:25;;;;;;;17.30;3.50;;;;;;;0.46;67.41;100242.44;77471;1311;3052383;-67
2024/02/27 00:34:51;;;;;;;21.80;3.80;;;;;;;0.31;68.22;100242.20;78810;1309;3018611;-71
2024/02/27 00:37:18;;;;;;;21.10;3.20;;;;;;;0.32;68.28;100234.61;78847;1311;3013500;-72
2024/02/27 00:39:46;;;;;;;17.10;4.10;;;;;;;0.33;68.10;100231.32;77519;1307;3027213;-69
2024/02/27 00:42:12;;;;;;;22.80;4.80;;;;;;;0.28;68.36;100229.46;78540;1310;3015455;-70
2024/02/27 00:44:40;;;;;;;27.20;3.80;;;;;;;0.25;68.43;100235.33;78735;1309;3011640;-68
2024/02/27 00:47:08;;;;;;;18.70;3.50;;;;;;;0.25;68.31;100239.83;77494;1308;3051703;-70
2024/02/27 00:49:35;;;;;;;25.20;4.10;;;;;;;0.27;68.46;100241.19;78752;1309;3013861;-69
2024/02/27 00:52:02;;;;;;;24.50;4.00;;;;;;;0.19;68.45;100242.27;78687;1311;3012743;-71
2024/02/27 00:54:31;;;;;;;17.40;4.20;;;;;;;0.13;68.73;100246.27;77512;1311;3056322;-71
2024/02/27 00:56:58;;;;;;;21.10;3.70;;;;;;;0.14;68.62;100249.88;78708;1309;3012687;-69
2024/02/27 00:59:24;;;;;;;23.10;3.80;;;;;;;0.12;68.94;100256.43;78631;1311;3012385;-72
2024/02/27 01:01:52;;;;;;;21.10;4.20;;;;;;;0.17;68.65;100260.36;77529;1311;3026692;-68
2024/02/27 01:04:19;;;;;;;18.90;4.50;;;;;;;0.16;68.52;100258.30;78721;1309;3013591;-71
2024/02/27 01:06:45;;;;;;;17.30;4.20;;;;;;;-0.00;68.78;100266.32;78716;1311;3011968;-69
2024/02/27 01:09:13;;;;;;;22.50;4.10;;;;;;;-0.03;68.86;100267.36;77467;1308;3027836;-70
2024/02/27 01:11:40;;;;;;;26.70;3.80;;;;;;;-0.01;68.94;100264.25;78698;1309;3018366;-71
2024/02/27 01:14:06;;;;;;;19.90;4.40;;;;;;;-0.07;68.93;100268.58;78592;1309;3011726;-67
2024/02/27 01:16:34;;;;;;;24.90;4.80;;;;;;;-0.06;68.84;100264.61;77464;1311;3028149;-73
2024/02/27 01:19:01;;;;;;;18.50;4.40;;;;;;;-0.17;69.23;100266.90;78885;1308;3019137;-67
2024/02/27 01:21:27;;;;;;;15.60;4.30;;;;;;;-0.18;69.53;100268.28;78629;1311;3011256;-72
2024/02/27 01:23:55;;;;;;;20.40;4.30;;;;;;;-0.13;69.17;100275.14;77564;1308;3026142;-69
2024/02/27 01:26:22;;;;;;;28.90;5.40;;;;;;;-0.17;69.49;100272.92;78633;1311;3013151;-72
2024/02/27 01:28:48;;;;;;;22.70;4.70;;;;;;;-0.14;69.48;100270.51;78639;1309;3011441;-67
2024/02/27 01:31:16;;;;;;;14.90;4.20;;;;;;;-0.06;69.24;100273.05;77656;1311;3025762;-67
2024/02/27 01:33:43;;;;;;;22.00;4.00;;;;;;;-0.09;69.13;100271.68;78796;1309;3013821;-68
2024/02/27 01:36:09;;;;;;;28.10;4.30;;;;;;;-0.16;69.33;100270.52;78661;1309;3011920;-71
2024/02/27 01:38:37;;;;;;;27.00;4.20;;;;;;;-0.12;68.96;100271.35;77536;1311;3027816;-72
2024/02/27 01:41:04;;;;;;;23.50;4.90;;;;;;;-0.28;69.41;100268.84;78834;1309;3013119;-69
2024/02/27 01:43:31;;;;;;;16.40;4.80;;;;;;;-0.31;69.50;100262.14;78711;1309;3011604;-71
2024/02/27 01:46:15;;;;;;;20.40;4.50;;;;;;;-0.35;69.83;100260.42;77622;1311;3026148;-68
2024/02/27 01:48:43;;;;;;;25.20;4.70;;;;;;;-0.34;69.94;100264.04;77548;1311;3051300;-68
2024/02/27 01:51:11;;;;;;;18.40;4.10;;;;;;;-0.41;69.80;100255.79;78908;1308;3012201;-70
2024/02/27 01:53:39;;;;;;;13.10;4.10;;;;;;;-0.41;69.99;100258.73;78668;1309;3013731;-72
2024/02/27 01:56:07;;;;;;;17.30;3.30;;;;;;;-0.44;70.32;100263.20;77513;1311;3050733;-67
2024/02/27 01:58:34;;;;;;;14.80;3.80;;;;;;;-0.40;70.19;100264.92;78972;1308;3013113;-70
2024/02/27 02:01:02;;;;;;;15.20;4.10;;;;;;;-0.40;69.92;100267.84;78794;1309;3011669;-70
2024/02/27 02:03:34;;;;;;;10.70;3.60;;;;;;;-0.51;70.01;100268.20;77481;1311;3052624;-69
2024/02/27 02:06:02;;;;;;;26.00;4.60;;;;;;;-0.53;70.46;100269.95;78774;1311;3012013;-71
2024/02/27 02:08:30;;;;;;;18.20;4.70;;;;;;;-0.60;70.60;100264.96;77409;1312;3051961;-73
2024/02/27 02:10:57;;;;;;;19.40;4.90;;;;;;;-0.54;70.52;100267.36;78714;1309;3013472;-71
2024/02/27 02:13:23;;;;;;;37.90;5.10;;;;;;;-0.63;70.81;100267.73;78658;1307;3011879;-69
2024/02/27 02:15:51;;;;;;;28.20;4.30;;;;;;;-0.70;71.04;100269.79;77402;1314;3026419;-72
2024/02/27 02:18:18;;;;;;;17.10;4.40;;;;;;;-0.67;70.95;100275.98;78542;1311;3013207;-72
2024/02/27 02:20:44;;;;;;;14.40;3.90;;;;;;;-0.70;71.12;100279.27;78619;1311;3013535;-68
2024/02/27 02:23:12;;;;;;;31.60;4.80;;;;;;;-0.73;71.30;100276.34;77552;1311;3025774;-71
2024/02/27 02:25:39;;;;;;;20.60;4.30;;;;;;;-0.79;71.62;100281.16;78688;1311;3015328;-70
2024/02/27 02:28:05;;;;;;;20.70;4.60;;;;;;;-0.81;71.07;100278.07;78797;1309;3011732;-70
2024/02/27 02:30:33;;;;;;;9.30;3.90;;;;;;;-0.87;71.59;100281.86;77597;1311;3028376;-68
2024/02/27 02:33:03;;;;;;;10.50;3.80;;;;;;;-0.88;71.71;100281.52;78833;1311;3018690;-70
2024/02/27 02:35:32;;;;;;;16.10;4.40;;;;;;;-0.90;71.97;100280.15;77467;1309;3068866;-71
2024/02/27 02:37:58;;;;;;;26.10;4.30;;;;;;;-0.91;71.74;100284.27;78751;1311;3013450;-74
2024/02/27 02:40:25;;;;;;;13.30;4.00;;;;;;;-0.98;72.08;100281.52;78821;1308;3012337;-70
2024/02/27 02:42:53;;;;;;;13.60;4.20;;;;;;;-1.02;72.27;100282.21;77552;1311;3027730;-71
2024/02/27 02:45:20;;;;;;;22.80;4.20;;;;;;;-1.08;72.44;100285.31;78850;1311;3018968;-74
2024/02/27 02:47:46;;;;;;;20.40;3.90;;;;;;;-1.11;72.67;100282.05;78737;1311;3011620;-74
2024/02/27 02:50:14;;;;;;;14.80;4.20;;;;;;;-1.05;72.29;100289.62;77549;1311;3028134;-70
2024/02/27 02:52:41;;;;;;;19.90;3.80;;;;;;;-1.09;72.51;100286.69;78823;1308;3018516;-68
2024/02/27 02:55:08;;;;;;;18.90;3.70;;;;;;;-1.17;72.89;100286.35;78764;1311;3011631;-71
2024/02/27 02:57:36;;;;;;;21.00;3.80;;;;;;;-1.17;72.97;100291.16;77674;1309;3025704;-71
2024/02/27 03:00:04;;;;;;;16.40;3.70;;;;;;;-1.13;73.01;100289.09;78946;1308;3013153;-71
2024/02/27 03:02:31;;;;;;;18.90;4.60;;;;;;;-1.19;72.92;100290.98;78729;1311;3011625;-73
2024/02/27 03:04:59;;;;;;;22.30;4.60;;;;;;;-1.13;72.95;100290.81;77574;1309;3068442;-72
2024/02/27 03:07:25;;;;;;;17.10;4.20;;;;;;;-1.12;72.74;100288.74;78717;1308;3013302;-70
2024/02/27 03:09:52;;;;;;;23.90;4.70;;;;;;;-1.23;73.03;100291.15;78762;1309;3011632;-72
2024/02/27 03:12:21;;;;;;;12.10;4.40;;;;;;;-1.21;73.18;100292.53;77556;1308;3026062;-69
2024/02/27 03:14:49;;;;;;;13.20;3.80;;;;;;;-1.23;73.49;100294.77;78760;1309;3013921;-74
2024/02/27 03:17:18;;;;;;;21.40;3.50;;;;;;;-1.26;73.34;100294.76;78300;1311;3011786;-70
2024/02/27 03:19:45;;;;;;;20.00;3.80;;;;;;;-1.30;73.42;100293.73;78636;1314;3013009;-71
2024/02/27 03:22:11;;;;;;;16.80;3.90;;;;;;;-1.32;73.89;100296.30;78795;1311;3013983;-70
2024/02/27 03:24:39;;;;;;;19.80;4.10;;;;;;;-1.34;73.88;100296.13;77555;1311;3028593;-73
2024/02/27 03:27:06;;;;;;;18.50;4.50;;;;;;;-1.32;73.72;100286.84;78837;1309;3013612;-73
2024/02/27 03:29:33;;;;;;;17.80;4.10;;;;;;;-1.38;73.87;100290.61;78827;1311;3011886;-72
2024/02/27 03:32:01;;;;;;;19.90;3.70;;;;;;;-1.35;73.82;100290.96;77579;1311;3050599;-69
2024/02/27 03:34:27;;;;;;;24.70;4.60;;;;;;;-1.41;74.09;100287.34;78848;1308;3015469;-73
2024/02/27 03:36:54;;;;;;;24.10;4.70;;;;;;;-1.43;74.37;100283.75;78776;1311;3011672;-71
2024/02/27 03:39:22;;;;;;;18.70;4.90;;;;;;;-1.52;74.59;100288.20;77620;1307;3025745;-70
2024/02/27 03:41:48;;;;;;;27.30;6.10;;;;;;;-1.45;74.66;100289.06;78765;1309;3018666;-68
2024/02/27 03:44:15;;;;;;;25.90;5.60;;;;;;;-1.48;74.48;100289.57;78733;1311;3011741;-70
2024/02/27 03:46:43;;;;;;;18.40;5.30;;;;;;;-1.51;74.83;100290.60;77523;1311;3028580;-71
2024/02/27 03:49:10;;;;;;;17.10;4.80;;;;;;;-1.45;74.61;100286.83;78837;1308;3013658;-69
2024/02/27 03:51:36;;;;;;;30.30;5.60;;;;;;;-1.45;74.82;100287.52;78673;1309;3011946;-69
2024/02/27 03:54:04;;;;;;;18.70;4.30;;;;;;;-1.45;74.51;100284.77;77535;1309;3026742;-71
2024/02/27 03:56:31;;;;;;;18.00;4.90;;;;;;;-1.54;74.64;100281.66;78759;1311;3018580;-69
2024/02/27 03:58:57;;;;;;;20.20;5.20;;;;;;;-1.55;74.79;100281.14;78734;1311;3011626;-68
2024/02/27 04:01:26;;;;;;;12.80;5.10;;;;;;;-1.56;74.86;100284.74;77540;1311;3027139;-69
2024/02/27 04:03:53;;;;;;;18.20;4.50;;;;;;;-1.63;75.24;100286.28;78733;1311;3013808;-71
2024/02/27 04:06:19;;;;;;;19.30;6.10;;;;;;;-1.69;75.59;100290.73;78762;1308;3012020;-68
2024/02/27 04:08:47;;;;;;;17.30;4.40;;;;;;;-1.62;75.34;100293.66;77408;1313;3056255;-68
2024/02/27 04:11:14;;;;;;;27.40;5.50;;;;;;;-1.61;75.32;100298.48;78879;1309;3018860;-69
2024/02/27 04:13:41;;;;;;;19.30;5.00;;;;;;;-1.57;75.33;100292.48;78876;1309;3011599;-71
2024/02/27 04:16:08;;;;;;;18.10;4.90;;;;;;;-1.55;75.21;100297.98;77494;1311;3027608;-69
2024/02/27 04:18:35;;;;;;;27.90;6.20;;;;;;;-1.56;74.99;100298.31;78749;1311;3012843;-68
2024/02/27 04:21:02;;;;;;;19.70;5.30;;;;;;;-1.56;75.09;100302.27;78718;1309;3011639;-71
2024/02/27 04:23:30;;;;;;;20.10;5.30;;;;;;;-1.57;75.21;100308.45;77659;1309;3056800;-73
2024/02/27 04:25:57;;;;;;;31.20;6.10;;;;;;;-1.57;75.28;100311.38;78838;1307;3013508;-69
2024/02/27 04:28:24;;;;;;;29.30;6.90;;;;;;;-1.62;75.40;100316.00;78827;1309;3011636;-71
2024/02/27 04:30:52;;;;;;;19.00;6.10;;;;;;;-1.61;75.54;100314.63;77644;1311;3026288;-72
2024/02/27 04:33:18;;;;;;;24.30;6.00;;;;;;;-1.64;75.68;100317.71;78862;1307;3013151;-71
2024/02/27 04:35:45;;;;;;;28.40;6.70;;;;;;;-1.62;75.56;100318.93;78724;1308;3011829;-70
2024/02/27 04:38:13;;;;;;;26.60;5.60;;;;;;;-1.58;75.38;100319.11;77544;1311;3025175;-74
2024/02/27 04:40:40;;;;;;;25.70;5.50;;;;;;;-1.53;75.45;100323.77;78758;1308;3018577;-73
2024/02/27 04:43:06;;;;;;;20.20;5.10;;;;;;;-1.50;75.15;100326.01;78856;1307;3013139;-72
2024/02/27 04:45:34;;;;;;;17.00;4.60;;;;;;;-1.43;75.08;100326.52;77563;1311;3026977;-68
2024/02/27 04:48:04;;;;;;;19.90;6.30;;;;;;;-1.44;74.86;100329.45;78761;1309;3013713;-70
2024/02/27 04:50:33;;;;;;;29.60;7.00;;;;;;;-1.41;74.64;100329.46;78192;1308;3013077;-73
2024/02/27 04:53:00;;;;;;;20.30;5.00;;;;;;;-1.46;74.88;100329.27;78681;1314;3014660;-70
2024/02/27 04:55:29;;;;;;;22.80;5.90;;;;;;;-1.44;74.69;100327.22;78633;1309;3011560;-75
2024/02/27 04:57:57;;;;;;;15.10;5.30;;;;;;;-1.43;74.88;100331.34;77573;1313;3052191;-73
2024/02/27 05:00:24;;;;;;;20.30;5.10;;;;;;;-1.41;74.70;100331.01;78603;1314;3013004;-73
2024/02/27 05:02:50;;;;;;;19.20;5.30;;;;;;;-1.44;75.03;100330.65;78720;1314;3011609;-73
2024/02/27 05:05:19;;;;;;;21.90;5.40;;;;;;;-1.38;74.78;100327.90;77615;1314;3069142;-71
2024/02/27 05:07:46;;;;;;;12.10;5.30;;;;;;;-1.36;74.84;100327.05;78740;1308;3013924;-71
2024/02/27 05:10:13;;;;;;;27.60;6.30;;;;;;;-1.27;74.59;100331.38;78594;1309;3011666;-69
2024/02/27 05:12:41;;;;;;;19.00;6.60;;;;;;;-1.28;73.97;100330.52;77543;1312;3053613;-68
2024/02/27 05:15:08;;;;;;;26.90;6.40;;;;;;;-1.40;74.36;100339.61;78693;1315;3012888;-70
2024/02/27 05:17:34;;;;;;;24.20;6.10;;;;;;;-1.30;74.68;100343.58;78782;1314;3012827;-68
2024/02/27 05:20:03;;;;;;;29.20;6.90;;;;;;;-1.29;74.33;100348.56;77536;1309;3026012;-72
2024/02/27 05:22:30;;;;;;;22.70;6.20;;;;;;;-1.26;74.36;100351.84;78757;1308;3015162;-70
2024/02/27 05:24:57;;;;;;;27.70;7.90;;;;;;;-1.21;74.32;100353.73;78690;1313;3011935;-74
2024/02/27 05:27:25;;;;;;;32.40;7.30;;;;;;;-1.21;74.11;100358.54;77431;1309;3052273;-73
2024/02/27 05:29:52;;;;;;;23.70;7.00;;;;;;;-1.20;73.98;100360.61;78772;1314;3019105;-70
2024/02/27 05:32:19;;;;;;;28.40;7.40;;;;;;;-1.09;73.66;100358.22;78629;1312;3013602;-71
2024/02/27 05:34:47;;;;;;;24.20;6.50;;;;;;;-1.18;73.93;100359.23;77462;1313;3069165;-71
2024/02/27 05:37:14;;;;;;;23.20;7.50;;;;;;;-1.16;73.78;100354.60;78786;1314;3018325;-73
2024/02/27 05:39:40;;;;;;;21.10;7.40;;;;;;;-1.08;73.84;100357.37;78871;1308;3013052;-68
2024/02/27 05:42:08;;;;;;;18.50;8.40;;;;;;;-0.99;73.56;100363.40;77496;1311;3026182;-74
2024/02/27 05:44:35;;;;;;;18.90;7.30;;;;;;;-1.05;73.51;100369.73;78758;1311;3013245;-72
2024/02/27 05:47:02;;;;;;;20.50;7.10;;;;;;;-1.01;73.81;100367.34;78893;1311;3013735;-72
2024/02/27 05:49:30;;;;;;;25.90;7.60;;;;;;;-0.95;73.07;100363.23;77552;1311;3028626;-71
2024/02/27 05:51:56;;;;;;;23.10;6.50;;;;;;;-1.00;73.37;100369.41;78795;1308;3013106;-72
2024/02/27 05:54:23;;;;;;;27.90;7.70;;;;;;;-0.94;73.56;100368.38;78867;1309;3012967;-72
2024/02/27 05:56:51;;;;;;;24.80;7.70;;;;;;;-0.83;72.93;100370.80;77632;1311;3026322;-74
2024/02/27 05:59:17;;;;;;;21.70;6.60;;;;;;;-0.80;72.85;100371.31;78856;1311;3013667;-72
2024/02/27 06:01:44;;;;;;;25.90;7.00;;;;;;;-0.82;72.82;100371.84;78761;1311;3011483;-72
2024/02/27 06:04:11;;;;;;;26.90;6.60;;;;;;;-0.75;73.01;100368.23;77517;1309;3026266;-73
2024/02/27 06:06:38;;;;;;;19.40;6.60;;;;;;;-0.70;72.60;100371.99;78912;1309;3018937;-69
2024/02/27 06:09:07;;;;;;;17.50;6.90;;;;;;;-0.67;72.62;100368.21;78862;1308;3013518;-71
2024/02/27 06:11:35;;;;;;;21.40;6.40;;;;;;;-0.64;72.44;100370.11;77619;1309;3053816;-73
2024/02/27 06:14:02;;;;;;;19.60;7.30;;;;;;;-0.60;72.21;100372.52;78777;1311;3013019;-71
2024/02/27 06:16:29;;;;;;;18.80;6.70;;;;;;;-0.58;72.29;100375.27;78868;1311;3011828;-72
2024/02/27 06:18:57;;;;;;;20.30;7.40;;;;;;;-0.55;72.27;100373.02;77568;1311;3069049;-73
2024/02/27 06:24:12;;;;;;;26.70;7.10;;;;;;;-0.34;71.17;100372.66;77623;1309;3048779;-73
2024/02/27 06:26:39;;;;;;;23.30;8.00;;;;;;;-0.25;70.76;100374.38;78724;1307;3013149;-72
2024/02/27 06:29:05;;;;;;;26.60;7.70;;;;;;;-0.16;70.60;100372.29;79140;1307;3011460;-73
2024/02/27 06:31:33;;;;;;;20.20;7.30;;;;;;;-0.22;70.38;100369.89;77506;1311;3025795;-72
2024/02/27 06:34:03;;;;;;;18.80;7.20;;;;;;;-0.17;70.70;100375.91;78883;1312;3013248;-74
2024/02/27 06:36:32;;;;;;;30.20;7.10;;;;;;;-0.13;70.64;100374.70;78479;1309;3013009;-76
2024/02/27 06:39:00;;;;;;;27.10;7.50;;;;;;;-0.02;70.31;100371.91;78921;1309;3013531;-74
2024/02/27 06:41:27;;;;;;;16.80;6.40;;;;;;;0.18;69.95;100375.46;78785;1311;3013755;-74
2024/02/27 06:43:55;;;;;;;29.10;7.20;;;;;;;0.20;69.23;100376.50;77760;1309;3050027;-74
2024/02/27 06:46:22;;;;;;;24.70;7.30;;;;;;;0.26;69.30;100377.85;79031;1311;3013424;-71
2024/02/27 06:48:49;;;;;;;22.70;8.50;;;;;;;0.25;69.03;100379.58;78875;1308;3012868;-73
2024/02/27 06:51:16;;;;;;;21.90;7.80;;;;;;;0.34;68.86;100384.02;77518;1311;3050822;-72
2024/02/27 06:53:43;;;;;;;22.20;6.80;;;;;;;0.36;68.68;100383.50;78920;1308;3013476;-74
2024/02/27 06:56:10;;;;;;;23.40;8.50;;;;;;;0.34;68.35;100381.10;78921;1308;3011770;-73
2024/02/27 06:58:38;;;;;;;22.00;8.40;;;;;;;0.42;68.21;100378.99;77703;1311;3026289;-74
2024/02/27 07:01:05;;;;;;;24.90;8.00;;;;;;;0.39;68.04;100378.84;78900;1311;3019151;-74
2024/02/27 07:03:31;;;;;;;20.60;7.60;;;;;;;0.47;67.77;100382.92;78761;1312;3011753;-72
2024/02/27 07:06:01;;;;;;;23.20;7.50;;;;;;;0.43;67.63;100383.81;77784;1320;3026003;-73
2024/02/27 07:08:27;;;;;;;28.20;7.70;;;;;;;0.43;67.63;100385.38;78819;1311;3012928;-73
2024/02/27 07:10:54;;;;;;;22.20;8.10;;;;;;;0.50;67.48;100385.16;78797;1309;3011453;-71
2024/02/27 07:13:22;;;;;;;22.40;7.10;;;;;;;0.51;67.50;100381.70;77859;1311;3049514;-75
2024/02/27 07:15:49;;;;;;;34.30;8.70;;;;;;;0.58;66.92;100379.42;79052;1311;3019105;-75
2024/02/27 07:18:16;;;;;;;32.20;8.50;;;;;;;0.66;67.17;100379.39;78958;1312;3013000;-73
2024/02/27 07:20:45;;;;;;;25.70;8.30;;;;;;;0.75;66.81;100378.81;77843;1311;3026176;-75
2024/02/27 07:23:15;;;;;;;26.10;8.90;;;;;;;0.83;66.68;100377.04;79028;1306;3013855;-73
2024/02/27 07:25:43;;;;;;;26.10;8.20;;;;;;;0.93;66.25;100379.91;77747;1311;3052792;-73
2024/02/27 07:28:09;;;;;;;19.20;7.80;;;;;;;1.00;66.01;100377.12;79051;1308;3012933;-70
2024/02/27 07:30:36;;;;;;;34.40;7.80;;;;;;;0.95;66.19;100374.56;78838;1311;3011860;-72
2024/02/27 07:33:05;;;;;;;22.10;8.30;;;;;;;0.96;66.35;100378.00;77424;1309;3026515;-71
2024/02/27 07:35:32;;;;;;;21.80;9.10;;;;;;;0.93;66.48;100378.70;80181;1308;3013809;-76
2024/02/27 07:37:58;;;;;;;27.40;8.00;;;;;;;0.99;66.06;100381.09;79256;1309;3012082;-72
2024/02/27 07:40:26;;;;;;;21.40;6.90;;;;;;;1.05;66.32;100377.93;78730;1311;3052690;-74
2024/02/27 07:42:53;;;;;;;17.60;6.90;;;;;;;1.15;66.03;100381.14;79952;1308;3012695;-71
2024/02/27 07:45:19;;;;;;;22.30;7.90;;;;;;;1.27;65.96;100378.98;80542;1308;3011435;-73
2024/02/27 07:47:47;;;;;;;21.10;7.60;;;;;;;1.39;65.33;100374.74;77895;1311;3026508;-74
2024/02/27 07:50:15;;;;;;;19.40;7.90;;;;;;;1.47;65.19;100374.33;81151;1307;3012605;-74
2024/02/27 07:52:42;;;;;;;21.30;7.60;;;;;;;1.53;64.84;100374.80;80236;1306;3011580;-75
2024/02/27 07:55:10;;;;;;;19.10;7.20;;;;;;;1.65;64.57;100374.85;79109;1306;3052968;-74
2024/02/27 07:57:37;;;;;;;23.90;7.60;;;;;;;1.70;64.25;100374.30;79788;1308;3011374;-74
2024/02/27 08:00:05;;;;;;;24.90;7.20;;;;;;;1.80;64.21;100371.25;79022;1312;3011451;-74
2024/02/27 08:02:35;;;;;;;20.70;7.80;;;;;;;1.89;63.79;100372.04;77757;1311;3069675;-75
2024/02/27 08:05:03;;;;;;;21.00;7.30;;;;;;;1.95;63.49;100370.58;78771;1308;3013620;-75
2024/02/27 08:07:31;;;;;;;19.60;7.30;;;;;;;2.01;63.36;100375.19;78811;1308;3011575;-74
2024/02/27 08:09:59;;;;;;;27.60;6.90;;;;;;;1.96;63.00;100370.40;77639;1309;3053838;-73
2024/02/27 08:12:26;;;;;;;24.90;8.10;;;;;;;2.00;62.96;100377.10;78822;1311;3012831;-74
2024/02/27 08:14:52;;;;;;;26.50;8.80;;;;;;;2.11;62.57;100375.77;78857;1308;3011709;-74
2024/02/27 08:17:20;;;;;;;20.50;8.20;;;;;;;2.16;62.31;100378.98;77528;1308;3026042;-73
2024/02/27 08:19:47;;;;;;;26.30;7.90;;;;;;;2.24;61.89;100380.45;79226;1310;3018316;-76
2024/02/27 08:22:13;;;;;;;23.50;7.10;;;;;;;2.30;61.46;100380.21;78961;1311;3011891;-74
2024/02/27 08:24:41;;;;;;;23.20;7.00;;;;;;;2.36;61.55;100380.66;77831;1309;3026492;-73
2024/02/27 08:27:08;;;;;;;25.70;7.70;;;;;;;2.43;61.27;100381.27;78925;1308;3018537;-72
2024/02/27 08:29:34;;;;;;;29.30;7.80;;;;;;;2.46;61.19;100378.98;78979;1308;3011674;-72
2024/02/27 08:32:02;;;;;;;25.50;8.10;;;;;;;2.59;61.20;100382.44;77828;1309;3028117;-74
2024/02/27 08:34:29;;;;;;;25.60;8.10;;;;;;;2.70;60.68;100382.48;78860;1308;3013151;-72
2024/02/27 08:36:56;;;;;;;30.50;8.40;;;;;;;2.81;60.56;100380.23;78869;1311;3012040;-73
2024/02/27 08:39:24;;;;;;;39.70;9.10;;;;;;;2.81;60.49;100375.73;77711;1313;3025979;-74
2024/02/27 08:41:50;;;;;;;29.40;8.50;;;;;;;2.91;60.28;100374.55;78678;1312;3013574;-75
2024/02/27 08:44:17;;;;;;;29.60;8.10;;;;;;;3.06;59.66;100375.91;78711;1311;3013234;-74
2024/02/27 08:46:45;;;;;;;25.70;7.90;;;;;;;3.07;59.05;100375.54;77655;1311;3028723;-72
2024/02/27 08:49:13;;;;;;;22.70;8.00;;;;;;;3.08;58.73;100372.73;78783;1309;3012989;-72
2024/02/27 08:51:42;;;;;;;30.20;8.30;;;;;;;3.20;58.76;100368.93;79069;1308;3011649;-72
2024/02/27 08:54:10;;;;;;;28.00;8.40;;;;;;;3.30;58.62;100362.01;77746;1311;3053433;-72
2024/02/27 08:56:39;;;;;;;22.90;7.50;;;;;;;3.35;58.65;100360.73;78850;1308;3013402;-72
2024/02/27 08:59:09;;;;;;;21.00;7.40;;;;;;;3.38;58.52;100357.56;78329;1311;3011642;-71
2024/02/27 09:01:35;;;;;;;27.60;7.10;;;;;;;3.45;58.36;100367.83;78914;1311;3013012;-74
2024/02/27 09:04:02;;;;;;;21.50;7.50;;;;;;;3.57;58.08;100364.86;78864;1309;3011654;-73
2024/02/27 09:06:30;;;;;;;24.50;7.50;;;;;;;3.62;57.74;100365.65;77480;1310;3057134;-73
2024/02/27 09:08:57;;;;;;;14.60;6.10;;;;;;;3.71;57.21;100365.83;78882;1310;3013463;-73
2024/02/27 09:11:24;;;;;;;28.30;7.00;;;;;;;3.77;57.05;100358.27;78994;1311;3011607;-74
2024/02/27 09:13:52;;;;;;;16.80;6.60;;;;;;;3.92;56.94;100361.11;77603;1320;3028791;-74
2024/02/27 09:16:18;;;;;;;23.00;7.20;;;;;;;4.00;56.62;100359.73;81230;1308;3011567;-73
2024/02/27 09:18:45;;;;;;;28.70;7.50;;;;;;;4.06;56.19;100361.36;81216;1308;3011841;-76
2024/02/27 09:21:13;;;;;;;21.30;5.50;;;;;;;4.22;55.99;100352.54;79943;1308;3026090;-76
2024/02/27 09:23:39;;;;;;;17.80;6.50;;;;;;;4.42;55.77;100355.42;81218;1309;3019033;-73
2024/02/27 09:26:06;;;;;;;14.80;5.50;;;;;;;4.55;55.25;100353.23;81220;1308;3011321;-73
2024/02/27 09:28:34;;;;;;;20.00;6.00;;;;;;;4.56;54.54;100353.05;79965;1311;3026045;-73
2024/02/27 09:31:02;;;;;;;12.50;5.10;;;;;;;4.64;54.41;100354.77;81258;1309;3018026;-74
2024/02/27 09:33:30;;;;;;;15.70;5.80;;;;;;;4.89;54.36;100353.89;81194;1309;3011589;-72
2024/02/27 09:35:58;;;;;;;13.80;5.40;;;;;;;4.86;53.95;100351.52;79950;1307;3057628;-74
2024/02/27 09:38:25;;;;;;;16.70;5.80;;;;;;;5.01;53.70;100345.44;81226;1308;3012859;-72
2024/02/27 09:40:54;;;;;;;18.20;5.90;;;;;;;5.23;53.37;100342.83;81214;1311;3011522;-74
2024/02/27 09:43:23;;;;;;;15.10;7.30;;;;;;;5.40;52.79;100337.38;79956;1309;3052219;-72
2024/02/27 09:45:50;;;;;;;20.50;6.30;;;;;;;5.55;52.33;100340.28;81077;1314;3012570;-73
2024/02/27 09:48:18;;;;;;;20.10;6.20;;;;;;;5.53;52.10;100342.77;81221;1309;3011261;-73
2024/02/27 09:50:46;;;;;;;19.10;5.90;;;;;;;5.58;51.91;100334.98;79955;1308;3057132;-73
2024/02/27 09:53:13;;;;;;;17.80;6.40;;;;;;;5.76;51.70;100332.42;81180;1308;3013380;-72
2024/02/27 09:55:40;;;;;;;17.90;5.60;;;;;;;5.88;51.33;100331.25;81033;1309;3011748;-74
2024/02/27 09:58:11;;;;;;;22.50;6.00;;;;;;;5.87;51.39;100329.02;79818;1313;3052462;-74
2024/02/27 10:00:37;;;;;;;14.40;6.30;;;;;;;5.97;51.28;100328.57;81192;1308;3011638;-75
2024/02/27 10:03:06;;;;;;;20.80;5.50;;;;;;;6.06;50.82;100332.17;80656;1308;3011715;-72
2024/02/27 10:05:33;;;;;;;15.20;5.70;;;;;;;6.15;50.74;100330.20;81146;1308;3018480;-71
2024/02/27 10:08:01;;;;;;;13.60;4.90;;;;;;;6.36;50.53;100325.05;81040;1309;3011240;-73
2024/02/27 10:10:29;;;;;;;14.10;5.00;;;;;;;6.50;49.72;100327.95;79784;1312;3053022;-74
2024/02/27 10:12:55;;;;;;;14.60;4.90;;;;;;;6.68;49.12;100332.45;81195;1311;3013273;-74
2024/02/27 10:15:22;;;;;;;10.70;4.70;;;;;;;6.82;48.43;100329.06;81218;1308;3012011;-75
2024/02/27 10:17:52;;;;;;;13.00;4.80;;;;;;;6.95;48.46;100331.97;79935;1308;3026761;-72
2024/02/27 10:20:26;;;;;;;17.80;5.10;;;;;;;7.05;47.68;100333.04;81042;1307;3011521;-74
2024/02/27 10:22:56;;;;;;;16.10;5.00;;;;;;;7.16;47.30;100332.86;79890;1309;3056041;-72
2024/02/27 10:25:25;;;;;;;13.40;4.60;;;;;;;7.26;47.19;100334.27;81196;1307;3013988;-73
2024/02/27 10:27:53;;;;;;;13.80;4.40;;;;;;;7.40;46.97;100332.61;79926;1308;3026359;-72
2024/02/27 10:30:20;;;;;;;11.60;4.60;;;;;;;7.44;46.70;100333.48;81203;1308;3012499;-75
2024/02/27 10:32:47;;;;;;;15.40;4.10;;;;;;;7.62;46.52;100324.49;81051;1311;3011618;-72
2024/02/27 10:35:16;;;;;;;12.10;4.80;;;;;;;7.75;45.97;100323.88;79812;1310;3026640;-75
2024/02/27 10:37:43;;;;;;;19.30;6.10;;;;;;;7.85;45.46;100316.03;81158;1308;3011462;-74
2024/02/27 10:40:10;;;;;;;18.50;5.30;;;;;;;7.92;45.13;100317.55;81185;1308;3011992;-74
2024/02/27 10:42:40;;;;;;;16.50;4.50;;;;;;;8.02;45.01;100316.84;79783;1309;3052910;-76
2024/02/27 10:45:07;;;;;;;16.30;4.60;;;;;;;8.05;45.02;100320.38;81180;1308;3012495;-74
2024/02/27 10:47:37;;;;;;;15.70;4.80;;;;;;;8.06;44.79;100322.42;79935;1311;3026467;-76
2024/02/27 10:50:07;;;;;;;12.80;4.10;;;;;;;8.10;44.83;100324.77;81205;1309;3011224;-74
2024/02/27 10:52:36;;;;;;;15.20;4.30;;;;;;;8.08;44.78;100323.77;80637;1307;3011228;-72
2024/02/27 10:55:03;;;;;;;22.50;5.20;;;;;;;8.21;44.45;100320.30;81196;1308;3018625;-71
2024/02/27 10:57:32;;;;;;;22.40;7.50;;;;;;;8.41;44.13;100324.11;81040;1307;3011474;-72
2024/02/27 11:00:00;;;;;;;17.60;6.10;;;;;;;8.62;43.82;100319.51;79863;1309;3053681;-76
2024/02/27 11:02:27;;;;;;;12.20;5.20;;;;;;;8.73;43.38;100323.26;81158;1308;3012707;-75
2024/02/27 11:04:54;;;;;;;17.40;5.50;;;;;;;8.85;42.97;100328.40;81199;1308;3011441;-75
2024/02/27 11:07:21;;;;;;;22.40;5.50;;;;;;;8.85;42.90;100324.20;79785;1313;3069107;-75